createdAt,value
2022-09-26T00:01:18.944Z,81.50
2022-09-26T00:03:48.391Z,74.70
2022-09-26T00:06:17.567Z,76.40
2022-09-26T00:08:45.392Z,74.50
2022-09-26T00:11:13.473Z,79.90
2022-09-26T00:13:40.834Z,77.40
2022-09-26T00:16:09.187Z,82.00
2022-09-26T00:18:38.838Z,82.40
2022-09-26T00:21:12.928Z,88.80
2022-09-26T00:23:41.480Z,84.30
2022-09-26T00:26:08.402Z,101.00
2022-09-26T00:28:35.247Z,96.10
2022-09-26T00:31:10.150Z,94.20
2022-09-26T00:33:37.553Z,90.00
2022-09-26T00:36:05.222Z,92.40
2022-09-26T00:38:32.478Z,105.40
2022-09-26T00:40:59.565Z,102.00
2022-09-26T00:43:41.424Z,94.50
2022-09-26T00:46:21.075Z,104.00
2022-09-26T00:48:53.173Z,99.70
2022-09-26T00:51:19.942Z,107.40
2022-09-26T00:53:48.668Z,106.10
2022-09-26T00:56:22.426Z,103.00
2022-09-26T00:58:54.912Z,114.60
2022-09-26T01:01:21.856Z,114.30
2022-09-26T01:03:48.709Z,107.50
2022-09-26T01:06:16.076Z,107.60
2022-09-26T01:09:08.237Z,106.80
2022-09-26T01:11:35.996Z,96.00
2022-09-26T01:14:03.976Z,111.90
2022-09-26T01:16:31.793Z,108.00
2022-09-26T01:19:00.544Z,109.00
2022-09-26T01:21:43.671Z,113.80
2022-09-26T01:24:58.655Z,129.50
2022-09-26T01:27:44.443Z,110.50
2022-09-26T01:30:21.259Z,101.20
2022-09-26T01:33:36.825Z,110.90
2022-09-26T01:36:19.345Z,93.10
2022-09-26T01:38:58.999Z,97.40
2022-09-26T01:41:53.497Z,112.60
2022-09-26T01:44:47.887Z,92.10
2022-09-26T01:47:24.104Z,92.90
2022-09-26T01:50:00.927Z,96.70
2022-09-26T01:52:28.976Z,97.90
2022-09-26T01:55:08.153Z,103.20
2022-09-26T01:58:09.507Z,108.30
2022-09-26T02:00:38.202Z,94.50
2022-09-26T02:03:06.065Z,90.90
2022-09-26T02:05:44.273Z,99.80
2022-09-26T02:08:26.886Z,97.30
2022-09-26T02:11:01.726Z,99.00
2022-09-26T02:13:31.228Z,94.20
2022-09-26T02:16:02.505Z,102.60
2022-09-26T02:18:47.832Z,102.30
2022-09-26T02:21:20.447Z,94.50
2022-09-26T02:23:48.316Z,100.10
2022-09-26T02:26:15.374Z,108.70
2022-09-26T02:28:42.325Z,109.90
2022-09-26T02:31:09.066Z,110.20
2022-09-26T02:33:36.629Z,104.40
2022-09-26T02:36:05.981Z,112.40
2022-09-26T02:38:34.063Z,106.10
2022-09-26T02:41:27.884Z,120.80
2022-09-26T02:44:17.461Z,117.00
2022-09-26T02:47:25.984Z,108.10
2022-09-26T02:49:59.449Z,103.60
2022-09-26T02:52:41.381Z,106.90
2022-09-26T02:55:35.979Z,117.10
2022-09-26T02:58:03.538Z,108.00
2022-09-26T03:00:51.516Z,110.90
2022-09-26T03:03:22.054Z,109.20
2022-09-26T03:08:21.474Z,91.00
2022-09-26T03:10:48.787Z,111.60
2022-09-26T03:13:16.866Z,130.40
2022-09-26T03:15:46.990Z,110.10
2022-09-26T03:18:16.530Z,143.20
2022-09-26T03:20:44.066Z,149.90
2022-09-26T03:23:10.920Z,169.80
2022-09-26T03:25:38.993Z,148.60
2022-09-26T03:28:06.455Z,156.10
2022-09-26T03:30:34.188Z,161.00
2022-09-26T03:33:03.019Z,157.40
2022-09-26T03:35:30.379Z,156.70
2022-09-26T03:37:57.841Z,163.50
2022-09-26T03:40:25.267Z,165.80
2022-09-26T03:42:52.459Z,168.10
2022-09-26T03:45:20.624Z,160.70
2022-09-26T03:47:47.996Z,179.20
2022-09-26T03:50:16.501Z,167.60
2022-09-26T03:52:43.642Z,166.70
2022-09-26T03:55:11.108Z,171.50
2022-09-26T03:57:38.264Z,164.80
2022-09-26T04:00:07.330Z,176.20
2022-09-26T04:02:35.419Z,180.60
2022-09-26T04:05:03.425Z,184.40
2022-09-26T04:07:30.377Z,178.50
2022-09-26T04:09:57.938Z,177.90
2022-09-26T04:12:25.191Z,178.90
2022-09-26T04:15:07.297Z,148.90
2022-09-26T04:17:36.294Z,160.70
2022-09-26T04:20:04.269Z,176.00
2022-09-26T04:22:31.423Z,186.20
2022-09-26T04:24:58.064Z,173.00
2022-09-26T04:27:29.421Z,176.30
2022-09-26T04:29:57.086Z,188.10
2022-09-26T04:32:24.441Z,180.30
2022-09-26T04:34:51.397Z,162.00
2022-09-26T04:37:20.484Z,197.10
2022-09-26T04:39:48.351Z,185.30
2022-09-26T04:42:15.144Z,165.40
2022-09-26T04:44:42.959Z,185.70
2022-09-26T04:47:10.826Z,176.80
2022-09-26T04:49:37.572Z,198.30
2022-09-26T04:52:05.744Z,205.30
2022-09-26T04:54:36.885Z,209.00
2022-09-26T04:57:04.239Z,160.00
2022-09-26T04:59:30.984Z,177.80
2022-09-26T05:01:57.878Z,178.70
2022-09-26T05:04:27.845Z,184.60
2022-09-26T05:06:55.405Z,197.00
2022-09-26T05:09:22.767Z,183.90
2022-09-26T05:11:49.507Z,193.60
2022-09-26T05:14:18.405Z,182.40
2022-09-26T05:16:46.794Z,201.00
2022-09-26T05:19:13.730Z,206.60
2022-09-26T05:21:42.733Z,208.70
2022-09-26T05:24:28.941Z,154.30
2022-09-26T05:26:56.498Z,192.60
2022-09-26T05:29:23.449Z,193.60
2022-09-26T05:31:53.640Z,199.60
2022-09-26T05:34:20.729Z,183.30
2022-09-26T05:36:48.705Z,193.40
2022-09-26T05:39:37.815Z,218.10
2022-09-26T05:42:08.814Z,207.90
2022-09-26T05:44:38.627Z,211.50
2022-09-26T05:47:06.778Z,203.90
2022-09-26T05:49:35.379Z,201.00
2022-09-26T05:52:03.469Z,211.20
2022-09-26T05:54:30.594Z,229.80
2022-09-26T05:56:57.462Z,205.30
2022-09-26T05:59:24.406Z,214.60
2022-09-26T06:01:52.650Z,217.00
2022-09-26T06:04:20.882Z,199.20
2022-09-26T06:06:50.771Z,221.90
2022-09-26T06:09:17.715Z,219.90
2022-09-26T06:11:45.070Z,198.60
2022-09-26T06:14:13.704Z,195.00
2022-09-26T06:16:42.000Z,204.50
2022-09-26T06:19:09.665Z,205.70
2022-09-26T06:21:39.415Z,218.00
2022-09-26T06:24:06.438Z,196.90
2022-09-26T06:26:33.609Z,202.50
2022-09-26T06:29:01.176Z,233.10
2022-09-26T06:31:31.630Z,228.30
2022-09-26T06:36:27.948Z,186.80
2022-09-26T06:38:55.364Z,209.60
2022-09-26T06:41:23.188Z,182.90
2022-09-26T06:43:51.042Z,186.30
2022-09-26T06:46:18.269Z,208.20
2022-09-26T06:48:46.165Z,201.90
2022-09-26T06:51:13.730Z,201.00
2022-09-26T06:53:42.116Z,207.90
2022-09-26T06:56:09.263Z,196.90
2022-09-26T06:58:36.728Z,210.40
2022-09-26T07:01:06.026Z,195.20
2022-09-26T07:03:33.693Z,194.20
2022-09-26T07:06:00.334Z,194.20
2022-09-26T07:08:50.404Z,185.80
2022-09-26T07:11:42.108Z,181.20
2022-09-26T07:14:04.493Z,199.60
2022-09-26T07:16:31.797Z,171.10
2022-09-26T07:18:58.902Z,186.80
2022-09-26T07:21:26.151Z,171.20
2022-09-26T07:23:57.551Z,186.50
2022-09-26T07:26:24.958Z,171.60
2022-09-26T07:28:54.794Z,169.00
2022-09-26T07:31:23.210Z,167.20
2022-09-26T07:33:49.998Z,171.90
2022-09-26T07:36:17.965Z,163.30
2022-09-26T07:38:49.006Z,168.10
2022-09-26T07:41:16.462Z,180.10
2022-09-26T07:46:50.645Z,160.80
2022-09-26T07:49:37.708Z,154.20
2022-09-26T07:52:04.653Z,159.20
2022-09-26T07:54:31.906Z,161.10
2022-09-26T07:56:59.464Z,166.10
2022-09-26T07:59:27.740Z,151.90
2022-09-26T08:01:54.396Z,164.20
2022-09-26T08:04:21.321Z,174.40
2022-09-26T08:06:49.597Z,168.70
2022-09-26T08:09:17.774Z,154.10
2022-09-26T08:11:44.922Z,184.50
2022-09-26T08:14:12.987Z,158.70
2022-09-26T08:16:41.386Z,162.10
2022-09-26T08:19:08.533Z,152.80
2022-09-26T08:21:35.379Z,158.30
2022-09-26T08:24:03.551Z,162.00
2022-09-26T08:26:31.117Z,155.50
2022-09-26T08:28:59.476Z,156.50
2022-09-26T08:31:26.458Z,166.10
2022-09-26T08:33:53.398Z,172.30
2022-09-26T08:36:20.464Z,184.30
2022-09-26T08:38:49.767Z,165.40
2022-09-26T08:41:32.391Z,166.70
2022-09-26T08:44:09.917Z,167.10
2022-09-26T08:47:05.970Z,151.70
2022-09-26T08:50:09.362Z,165.20
2022-09-26T08:52:46.763Z,150.50
2022-09-26T08:55:20.425Z,149.80
2022-09-26T08:57:48.603Z,152.70
2022-09-26T09:00:20.683Z,160.80
2022-09-26T09:02:52.537Z,152.50
2022-09-26T09:05:26.672Z,154.70
2022-09-26T09:07:55.152Z,149.40
2022-09-26T09:10:37.876Z,156.20
2022-09-26T09:13:34.527Z,154.00
2022-09-26T09:16:39.517Z,150.70
2022-09-26T09:19:32.738Z,146.90
2022-09-26T09:22:06.556Z,136.90
2022-09-26T09:24:34.234Z,155.80
2022-09-26T09:30:44.738Z,150.80
2022-09-26T09:33:17.480Z,153.50
2022-09-26T09:36:10.383Z,160.20
2022-09-26T09:38:38.661Z,166.50
2022-09-26T09:41:13.699Z,158.80
2022-09-26T09:43:47.819Z,145.70
2022-09-26T09:46:40.325Z,139.00
2022-09-26T09:49:07.219Z,165.10
2022-09-26T09:51:58.751Z,164.80
2022-09-26T09:54:41.655Z,151.40
2022-09-26T09:57:34.006Z,163.60
2022-09-26T10:00:21.849Z,174.00
2022-09-26T10:03:02.232Z,176.30
2022-09-26T10:08:22.209Z,155.70
2022-09-26T10:11:25.822Z,163.40
2022-09-26T10:13:55.025Z,176.90
2022-09-26T10:16:23.213Z,175.10
2022-09-26T10:19:03.910Z,192.10
2022-09-26T10:21:33.653Z,166.20
2022-09-26T10:24:04.227Z,176.10
2022-09-26T10:26:38.998Z,170.40
2022-09-26T10:29:20.753Z,173.80
2022-09-26T10:31:48.622Z,178.30
2022-09-26T10:34:24.375Z,186.50
2022-09-26T10:36:52.649Z,172.00
2022-09-26T10:39:39.975Z,195.00
2022-09-26T10:42:15.204Z,211.80
2022-09-26T10:44:42.569Z,188.70
2022-09-26T10:47:13.609Z,211.50
2022-09-26T10:50:21.616Z,180.20
2022-09-26T10:53:16.791Z,181.80
2022-09-26T10:55:48.999Z,150.50
2022-09-26T10:58:23.409Z,164.30
2022-09-26T11:00:51.414Z,191.20
2022-09-26T11:03:43.199Z,181.10
2022-09-26T11:06:26.950Z,167.80
2022-09-26T11:08:57.857Z,163.50
2022-09-26T11:11:27.393Z,174.80
2022-09-26T11:14:02.939Z,172.20
2022-09-26T11:16:48.728Z,195.10
2022-09-26T11:19:39.018Z,163.30
2022-09-26T11:22:41.088Z,149.30
2022-09-26T11:25:26.676Z,156.40
2022-09-26T11:28:21.670Z,159.40
2022-09-26T11:30:48.537Z,168.10
2022-09-26T11:33:18.322Z,173.20
2022-09-26T11:35:49.310Z,147.40
2022-09-26T11:38:26.855Z,171.40
2022-09-26T11:41:10.899Z,164.40
2022-09-26T11:43:52.691Z,174.80
2022-09-26T11:46:46.927Z,197.60
2022-09-26T11:49:15.456Z,180.40
2022-09-26T11:51:51.817Z,189.20
2022-09-26T11:54:34.812Z,178.10
2022-09-26T11:57:40.671Z,170.00
2022-09-26T12:00:11.510Z,160.80
2022-09-26T12:03:06.532Z,194.60
2022-09-26T12:05:45.055Z,185.30
2022-09-26T12:08:18.656Z,181.20
2022-09-26T12:11:14.776Z,173.00
2022-09-26T12:14:16.003Z,202.60
2022-09-26T12:16:58.086Z,153.30
2022-09-26T12:19:36.127Z,166.80
2022-09-26T12:22:28.058Z,194.10
2022-09-26T12:25:20.449Z,195.90
2022-09-26T12:28:00.456Z,203.10
2022-09-26T12:30:54.799Z,202.80
2022-09-26T12:33:43.089Z,191.90
2022-09-26T12:36:39.934Z,178.70
2022-09-26T12:39:12.771Z,192.80
2022-09-26T12:41:51.336Z,189.20
2022-09-26T12:44:43.783Z,202.20
2022-09-26T12:47:52.435Z,196.70
2022-09-26T12:50:24.367Z,219.70
2022-09-26T12:52:54.080Z,218.20
2022-09-26T12:55:52.563Z,216.00
2022-09-26T12:58:19.609Z,192.30
2022-09-26T13:01:11.679Z,214.80
2022-09-26T13:03:38.996Z,202.90
2022-09-26T13:06:27.350Z,218.90
2022-09-26T13:09:32.279Z,210.70
2022-09-26T13:12:20.730Z,194.30
2022-09-26T13:15:24.850Z,196.30
2022-09-26T13:18:04.490Z,191.60
2022-09-26T13:20:54.788Z,184.90
2022-09-26T13:23:26.748Z,213.50
2022-09-26T13:25:55.038Z,201.10
2022-09-26T13:28:23.612Z,223.80
2022-09-26T13:31:01.327Z,225.20
2022-09-26T13:33:35.570Z,205.70
2022-09-26T13:36:03.299Z,198.80
2022-09-26T13:38:35.056Z,206.60
2022-09-26T13:43:53.019Z,176.40
2022-09-26T13:46:22.578Z,179.90
2022-09-26T13:49:00.276Z,192.20
2022-09-26T13:51:49.728Z,194.00
2022-09-26T13:54:30.168Z,199.50
2022-09-26T13:56:56.908Z,210.90
2022-09-26T13:59:31.842Z,204.50
2022-09-26T14:02:19.210Z,214.60
2022-09-26T14:04:48.069Z,205.90
2022-09-26T14:07:35.286Z,234.60
2022-09-26T14:10:02.135Z,215.90
2022-09-26T14:12:33.378Z,221.50
2022-09-26T14:15:15.793Z,210.40
2022-09-26T14:17:42.636Z,193.90
2022-09-26T14:20:27.579Z,198.70
2022-09-26T14:22:56.307Z,189.10
2022-09-26T14:25:45.776Z,202.70
2022-09-26T14:28:32.337Z,191.20
2022-09-26T14:31:21.711Z,204.20
2022-09-26T14:33:50.340Z,188.50
2022-09-26T14:36:28.488Z,214.20
2022-09-26T14:38:56.322Z,193.10
2022-09-26T14:41:30.149Z,192.60
2022-09-26T14:44:03.250Z,175.10
2022-09-26T14:46:32.927Z,197.30
2022-09-26T14:49:02.650Z,177.30
2022-09-26T14:51:36.595Z,195.00
2022-09-26T14:54:31.471Z,175.30
2022-09-26T14:57:03.745Z,173.80
2022-09-26T14:59:33.458Z,183.30
2022-09-26T15:02:25.539Z,188.70
2022-09-26T15:04:59.428Z,185.80
2022-09-26T15:07:27.074Z,184.30
2022-09-26T15:10:07.161Z,187.20
2022-09-26T15:12:39.306Z,195.60
2022-09-26T15:15:26.907Z,186.30
2022-09-26T15:17:57.522Z,180.00
2022-09-26T15:22:52.295Z,164.30
2022-09-26T15:25:22.967Z,187.50
2022-09-26T15:27:53.523Z,177.50
2022-09-26T15:32:57.089Z,158.70
2022-09-26T15:35:26.292Z,178.30
2022-09-26T15:38:00.107Z,172.80
2022-09-26T15:40:29.315Z,181.70
2022-09-26T15:43:02.487Z,180.80
2022-09-26T15:45:45.920Z,179.90
2022-09-26T15:48:19.216Z,192.20
2022-09-26T15:50:48.660Z,184.30
2022-09-26T15:53:21.713Z,182.80
2022-09-26T15:55:55.713Z,189.00
2022-09-26T15:58:46.542Z,194.40
2022-09-26T16:01:15.658Z,184.90
2022-09-26T16:03:58.869Z,174.90
2022-09-26T16:06:35.893Z,174.70
2022-09-26T16:09:34.147Z,194.50
2022-09-26T16:12:04.196Z,190.30
2022-09-26T16:14:46.268Z,190.30
2022-09-26T16:17:18.589Z,191.20
2022-09-26T16:20:02.191Z,207.80
2022-09-26T16:22:35.803Z,185.00
2022-09-26T16:25:55.883Z,189.50
2022-09-26T16:28:41.564Z,195.20
2022-09-26T16:31:14.399Z,199.90
2022-09-26T16:33:41.963Z,199.40
2022-09-26T16:36:14.582Z,210.80
2022-09-26T16:38:41.732Z,210.40
2022-09-26T16:41:56.164Z,228.50
2022-09-26T16:44:26.164Z,209.70
2022-09-26T16:49:47.851Z,196.60
2022-09-26T16:52:28.110Z,206.70
2022-09-26T16:55:00.021Z,197.80
2022-09-26T16:57:28.953Z,231.90
2022-09-26T17:00:23.133Z,209.60
2022-09-26T17:02:50.348Z,214.60
2022-09-26T17:05:20.399Z,197.90
2022-09-26T17:07:48.524Z,214.60
2022-09-26T17:10:17.190Z,214.60
2022-09-26T17:12:51.077Z,211.00
2022-09-26T17:15:27.579Z,228.50
2022-09-26T17:17:57.350Z,215.60
2022-09-26T17:20:24.092Z,217.10
2022-09-26T17:22:51.345Z,225.80
2022-09-26T17:25:18.641Z,231.90
2022-09-26T17:27:47.075Z,225.00
2022-09-26T17:30:16.606Z,211.70
2022-09-26T17:32:49.130Z,229.60
2022-09-26T17:35:27.171Z,219.20
2022-09-26T17:37:55.787Z,215.80
2022-09-26T17:40:25.658Z,210.50
2022-09-26T17:42:54.656Z,215.80
2022-09-26T17:45:25.452Z,229.10
2022-09-26T17:47:52.724Z,226.60
2022-09-26T17:50:25.213Z,233.70
2022-09-26T17:52:53.674Z,232.60
2022-09-26T17:55:21.190Z,228.20
2022-09-26T17:57:48.708Z,230.90
2022-09-26T18:00:17.504Z,238.80
2022-09-26T18:02:56.160Z,238.20
2022-09-26T18:05:42.640Z,228.30
2022-09-26T18:08:15.745Z,233.10
2022-09-26T18:10:49.036Z,257.00
2022-09-26T18:13:16.514Z,238.70
2022-09-26T18:15:44.510Z,239.30
2022-09-26T18:18:14.313Z,244.40
2022-09-26T18:20:40.961Z,244.40
2022-09-26T18:23:07.813Z,222.60
2022-09-26T18:25:36.816Z,250.00
2022-09-26T18:28:06.130Z,234.70
2022-09-26T18:30:42.741Z,223.00
2022-09-26T18:33:11.097Z,251.00
2022-09-26T18:35:40.117Z,256.60
2022-09-26T18:38:07.154Z,236.20
2022-09-26T18:40:37.663Z,237.10
2022-09-26T18:45:36.309Z,213.50
2022-09-26T18:48:10.562Z,235.60
2022-09-26T18:50:39.022Z,255.10
2022-09-26T18:53:19.610Z,247.60
2022-09-26T18:56:05.701Z,225.70
2022-09-26T18:58:33.377Z,236.50
2022-09-26T19:01:08.448Z,237.60
2022-09-26T19:03:36.597Z,219.40
2022-09-26T19:06:11.439Z,260.10
2022-09-26T19:08:45.868Z,228.60
2022-09-26T19:11:20.437Z,250.20
2022-09-26T19:13:49.092Z,253.90
2022-09-26T19:16:16.509Z,245.30
2022-09-26T19:18:45.375Z,241.30
2022-09-26T19:21:51.850Z,253.40
2022-09-26T19:24:28.432Z,241.70
2022-09-26T19:26:58.649Z,247.00
2022-09-26T19:29:38.451Z,237.10
2022-09-26T19:32:05.850Z,250.90
2022-09-26T19:34:33.060Z,229.30
2022-09-26T19:37:02.486Z,227.30
2022-09-26T19:39:29.522Z,250.50
2022-09-26T19:41:56.377Z,239.10
2022-09-26T19:44:24.247Z,222.90
2022-09-26T19:46:51.407Z,237.40
2022-09-26T19:49:19.284Z,232.20
2022-09-26T19:51:46.243Z,261.50
2022-09-26T19:54:17.531Z,243.60
2022-09-26T19:56:46.193Z,246.60
2022-09-26T19:59:13.559Z,245.70
2022-09-26T20:01:41.682Z,248.20
2022-09-26T20:04:14.132Z,256.10
2022-09-26T20:06:41.498Z,229.10
2022-09-26T20:09:18.692Z,229.50
2022-09-26T20:11:46.370Z,230.50
2022-09-26T20:14:25.510Z,236.20
2022-09-26T20:16:54.917Z,245.90
2022-09-26T20:19:27.874Z,229.70
2022-09-26T20:21:59.283Z,205.70
2022-09-26T20:24:26.236Z,235.30
2022-09-26T20:26:53.193Z,219.60
2022-09-26T20:29:19.942Z,236.50
2022-09-26T20:31:47.818Z,232.70
2022-09-26T20:34:16.721Z,231.10
2022-09-26T20:36:46.120Z,235.60
2022-09-26T20:39:31.624Z,233.50
2022-09-26T20:41:58.578Z,232.90
2022-09-26T20:44:27.857Z,246.10
2022-09-26T20:46:57.089Z,242.10
2022-09-26T20:49:27.899Z,243.10
2022-09-26T20:51:54.590Z,248.80
2022-09-26T20:54:32.092Z,245.30
2022-09-26T20:57:00.792Z,230.80
2022-09-26T20:59:28.672Z,256.10
2022-09-26T21:01:57.057Z,261.80
2022-09-26T21:04:29.438Z,227.50
2022-09-26T21:06:56.703Z,255.20
2022-09-26T21:09:24.375Z,242.70
2022-09-26T21:11:52.045Z,241.10
2022-09-26T21:14:19.208Z,255.40
2022-09-26T21:16:50.855Z,236.40
2022-09-26T21:19:20.803Z,240.30
2022-09-26T21:21:47.445Z,227.10
2022-09-26T21:24:24.165Z,251.80
2022-09-26T21:26:51.769Z,249.30
2022-09-26T21:29:18.714Z,233.50
2022-09-26T21:31:51.241Z,264.40
2022-09-26T21:34:23.010Z,248.30
2022-09-26T21:36:51.094Z,242.30
2022-09-26T21:39:18.595Z,226.20
2022-09-26T21:41:49.309Z,248.70
2022-09-26T21:46:45.685Z,209.90
2022-09-26T21:49:13.664Z,223.30
2022-09-26T21:51:40.617Z,252.80
2022-09-26T21:54:16.866Z,248.20
2022-09-26T21:56:49.369Z,262.20
2022-09-26T21:59:18.864Z,247.80
2022-09-26T22:01:47.519Z,246.70
2022-09-26T22:04:14.530Z,267.80
2022-09-26T22:06:41.786Z,257.00
2022-09-26T22:09:08.652Z,229.00
2022-09-26T22:11:36.396Z,250.80
2022-09-26T22:14:04.577Z,250.20
2022-09-26T22:16:31.766Z,238.60
2022-09-26T22:18:58.685Z,260.00
2022-09-26T22:21:25.735Z,285.90
2022-09-26T22:23:52.705Z,262.50
2022-09-26T22:26:21.071Z,286.10
2022-09-26T22:28:48.626Z,260.50
2022-09-26T22:31:16.135Z,285.30
2022-09-26T22:33:43.554Z,274.30
2022-09-26T22:36:10.466Z,272.30
2022-09-26T22:38:38.889Z,272.90
2022-09-26T22:41:06.654Z,274.80
2022-09-26T22:43:33.910Z,264.30
2022-09-26T22:46:08.006Z,283.10
2022-09-26T22:48:36.003Z,268.10
2022-09-26T22:51:04.179Z,309.20
2022-09-26T22:53:32.056Z,274.50
2022-09-26T22:56:04.634Z,292.80
2022-09-26T22:58:35.986Z,283.40
2022-09-26T23:01:09.956Z,282.10
2022-09-26T23:03:37.563Z,281.70
2022-09-26T23:06:05.330Z,295.40
2022-09-26T23:08:33.609Z,293.80
2022-09-26T23:11:01.996Z,291.60
2022-09-26T23:13:31.401Z,273.80
2022-09-26T23:16:09.613Z,289.90
2022-09-26T23:18:38.507Z,285.10
2022-09-26T23:21:18.458Z,296.80
2022-09-26T23:23:48.172Z,289.20
2022-09-26T23:26:26.492Z,290.60
2022-09-26T23:28:54.032Z,287.00
2022-09-26T23:31:21.269Z,315.40
2022-09-26T23:33:48.566Z,325.20
2022-09-26T23:36:15.517Z,308.90
2022-09-26T23:38:42.979Z,296.10
2022-09-26T23:41:10.645Z,321.10
2022-09-26T23:43:38.308Z,293.10
2022-09-26T23:46:06.168Z,308.30
2022-09-26T23:48:33.263Z,309.80
2022-09-26T23:51:02.023Z,318.00
2022-09-26T23:53:29.274Z,309.00
2022-09-26T23:56:06.976Z,297.70
2022-09-26T23:58:35.154Z,306.80
